createdAt,value
2022-07-28T04:46:03.292Z,84.16
2022-07-28T04:47:06.395Z,84.36
2022-07-28T04:48:04.230Z,83.75
2022-07-28T04:49:04.346Z,83.71
2022-07-28T04:50:04.209Z,83.71
2022-07-28T04:51:04.202Z,83.51
2022-07-28T04:52:04.206Z,83.81
2022-07-28T04:53:04.191Z,83.71
2022-07-28T04:54:04.186Z,82.28
2022-07-28T04:55:04.157Z,81.73
2022-07-28T04:56:04.145Z,81.84
2022-07-28T04:57:07.559Z,81.84
2022-07-28T04:58:04.129Z,81.49
2022-07-28T04:59:04.114Z,80.88
2022-07-28T05:00:04.100Z,81.09
2022-07-28T05:01:04.162Z,80.98
2022-07-28T05:02:04.099Z,80.57
2022-07-28T05:03:04.094Z,80.02
2022-07-28T05:04:04.072Z,80.33
2022-07-28T05:05:04.180Z,79.82
2022-07-28T05:06:04.038Z,79.62
2022-07-28T05:07:11.810Z,79.52
2022-07-28T05:08:04.021Z,78.56
2022-07-28T05:09:04.007Z,78.97
2022-07-28T05:10:04.026Z,79.27
2022-07-28T05:11:03.997Z,79.07
2022-07-28T05:12:04.009Z,77.81
2022-07-28T05:13:03.965Z,78.73
2022-07-28T05:14:03.954Z,78.42
2022-07-28T05:15:03.949Z,78.12
2022-07-28T05:16:04.023Z,78.02
2022-07-28T05:17:03.959Z,78.42
2022-07-28T05:18:03.909Z,77.51
2022-07-28T05:19:03.908Z,77.61
2022-07-28T05:20:03.888Z,77.67
2022-07-28T05:21:03.881Z,76.65
2022-07-28T05:22:03.877Z,76.45
2022-07-28T05:23:03.853Z,76.62
2022-07-28T05:24:03.847Z,76.31
2022-07-28T05:25:03.840Z,76.62
2022-07-28T05:26:03.825Z,75.91
2022-07-28T05:27:03.830Z,75.70
2022-07-28T05:28:03.807Z,76.11
2022-07-28T05:29:03.791Z,73.63
2022-07-28T05:30:03.777Z,74.35
2022-07-28T05:31:03.780Z,75.26
2022-07-28T05:32:16.848Z,74.96
2022-07-28T05:33:03.756Z,74.11
2022-07-28T05:34:03.733Z,74.41
2022-07-28T05:35:03.725Z,73.91
2022-07-28T05:36:03.707Z,74.41
2022-07-28T05:37:03.721Z,75.23
2022-07-28T05:38:06.400Z,73.30
2022-07-28T05:39:03.690Z,72.78
2022-07-28T05:40:03.669Z,73.91
2022-07-28T05:41:03.657Z,73.91
2022-07-28T05:42:03.668Z,73.46
2022-07-28T05:43:03.637Z,73.77
2022-07-28T05:44:03.627Z,73.46
2022-07-28T05:45:03.614Z,73.67
2022-07-28T05:46:03.700Z,73.06
2022-07-28T05:47:03.614Z,73.06
2022-07-28T05:48:03.577Z,72.85
2022-07-28T05:49:03.750Z,73.80
2022-07-28T05:50:03.554Z,73.19
2022-07-28T05:51:03.546Z,72.85
2022-07-28T05:52:03.530Z,73.36
2022-07-28T05:53:03.551Z,73.16
2022-07-28T05:54:03.507Z,73.87
2022-07-28T05:55:03.508Z,74.18
2022-07-28T05:56:03.490Z,74.07
2022-07-28T05:57:03.496Z,73.57
2022-07-28T05:58:03.479Z,73.57
2022-07-28T05:59:03.456Z,74.18
2022-07-28T06:00:03.444Z,74.58
2022-07-28T06:01:03.546Z,73.46
2022-07-28T06:02:03.531Z,73.57
2022-07-28T06:03:03.421Z,73.22
2022-07-28T06:04:26.088Z,73.02
2022-07-28T06:05:03.398Z,73.63
2022-07-28T06:06:15.637Z,72.89
2022-07-28T06:07:03.374Z,71.88
2022-07-28T06:08:03.369Z,71.64
2022-07-28T06:09:03.344Z,71.23
2022-07-28T06:10:03.333Z,72.14
2022-07-28T06:11:03.324Z,70.39
2022-07-28T06:12:03.309Z,70.89
2022-07-28T06:13:03.316Z,70.18
2022-07-28T06:14:03.291Z,70.08
2022-07-28T06:15:03.284Z,69.03
2022-07-28T06:16:03.294Z,69.68
2022-07-28T06:17:03.374Z,69.44
2022-07-28T06:18:03.260Z,70.25
2022-07-28T06:19:03.240Z,68.23
2022-07-28T06:20:03.228Z,70.12
2022-07-28T06:21:03.217Z,68.40
2022-07-28T06:22:03.206Z,67.68
2022-07-28T06:23:03.210Z,67.85
2022-07-28T06:24:03.182Z,68.16
2022-07-28T06:25:03.200Z,66.84
2022-07-28T06:26:03.220Z,67.45
2022-07-28T06:27:03.155Z,67.14
2022-07-28T06:28:03.148Z,67.35
2022-07-28T06:29:03.133Z,67.65
2022-07-28T06:30:03.122Z,67.85
2022-07-28T06:31:03.112Z,66.74
2022-07-28T06:32:03.158Z,66.44
2022-07-28T06:33:03.099Z,65.53
2022-07-28T06:34:03.077Z,65.62
2022-07-28T06:35:03.064Z,65.83
2022-07-28T06:36:03.051Z,64.89
2022-07-28T06:37:03.049Z,63.87
2022-07-28T06:38:03.043Z,64.18
2022-07-28T06:39:03.020Z,64.18
2022-07-28T06:40:03.004Z,65.29
2022-07-28T06:41:03.009Z,63.78
2022-07-28T06:42:03.005Z,64.58
2022-07-28T06:43:03.002Z,64.79
2022-07-28T06:44:02.969Z,64.48
2022-07-28T06:45:02.993Z,63.87
2022-07-28T06:46:02.948Z,64.89
2022-07-28T06:47:03.014Z,63.47
2022-07-28T06:48:02.943Z,63.57
2022-07-28T06:49:03.000Z,63.98
2022-07-28T06:50:02.902Z,63.37
2022-07-28T06:51:02.898Z,63.87
2022-07-28T06:52:02.882Z,63.04
2022-07-28T06:53:02.890Z,64.65
2022-07-28T06:54:04.843Z,62.43
2022-07-28T06:55:02.866Z,65.06
2022-07-28T06:56:02.834Z,64.12
2022-07-28T06:57:02.828Z,62.50
2022-07-28T06:58:02.835Z,64.83
2022-07-28T06:59:02.808Z,62.57
2022-07-28T07:00:02.812Z,62.27
2022-07-28T07:01:02.878Z,61.87
2022-07-28T07:02:02.775Z,62.16
2022-07-28T07:03:02.779Z,61.66
2022-07-28T07:04:02.815Z,63.05
2022-07-28T07:05:02.819Z,61.94
2022-07-28T07:06:02.729Z,61.53
2022-07-28T07:07:02.721Z,61.30
2022-07-28T07:08:02.720Z,60.09
2022-07-28T07:09:02.704Z,60.69
2022-07-28T07:10:02.685Z,60.69
2022-07-28T07:11:02.685Z,61.40
2022-07-28T07:12:02.664Z,59.28
2022-07-28T07:13:02.682Z,59.25
2022-07-28T07:14:02.854Z,59.76
2022-07-28T07:15:02.705Z,60.16
2022-07-28T07:16:02.627Z,59.25
2022-07-28T07:17:02.613Z,59.86
2022-07-28T07:18:02.599Z,59.12
2022-07-28T07:19:06.852Z,59.02
2022-07-28T07:20:02.578Z,58.14
2022-07-28T07:21:02.565Z,58.92
2022-07-28T07:22:02.551Z,58.42
2022-07-28T07:23:02.817Z,59.35
2022-07-28T07:24:02.545Z,58.52
2022-07-28T07:25:02.523Z,58.62
2022-07-28T07:26:02.511Z,58.72
2022-07-28T07:27:02.502Z,59.66
2022-07-28T07:28:04.865Z,58.32
2022-07-28T07:29:02.499Z,58.82
2022-07-28T07:30:02.476Z,58.62
2022-07-28T07:31:02.473Z,59.42
2022-07-28T07:32:05.674Z,59.02
2022-07-28T07:33:02.440Z,58.62
2022-07-28T07:34:02.446Z,60.03
2022-07-28T07:35:02.415Z,57.18
2022-07-28T07:36:02.409Z,58.67
2022-07-28T07:37:02.395Z,57.05
2022-07-28T07:38:02.378Z,56.45
2022-07-28T07:39:02.386Z,56.12
2022-07-28T07:40:02.357Z,56.32
2022-07-28T07:41:02.345Z,55.89
2022-07-28T07:42:02.336Z,56.29
2022-07-28T07:43:02.328Z,55.49
2022-07-28T07:44:02.331Z,55.82
2022-07-28T07:45:02.404Z,55.91
2022-07-28T07:46:02.294Z,54.99
2022-07-28T07:47:02.352Z,55.19
2022-07-28T07:48:02.264Z,54.25
2022-07-28T07:49:02.363Z,54.75
2022-07-28T07:50:04.421Z,55.26
2022-07-28T07:51:02.254Z,55.33
2022-07-28T07:52:02.228Z,55.13
2022-07-28T07:53:02.217Z,56.62
2022-07-28T07:54:02.221Z,53.12
2022-07-28T07:55:02.204Z,53.32
2022-07-28T07:56:02.183Z,54.23
2022-07-28T07:57:02.179Z,54.40
2022-07-28T07:58:02.178Z,53.70
2022-07-28T07:59:02.172Z,54.23
2022-07-28T08:00:02.156Z,54.63
2022-07-28T08:01:02.134Z,55.23
2022-07-28T08:02:02.305Z,55.87
2022-07-28T08:03:02.112Z,53.98
2022-07-28T08:04:02.169Z,55.69
2022-07-28T08:05:02.196Z,54.68
2022-07-28T08:06:02.077Z,55.39
2022-07-28T08:07:02.077Z,55.71
2022-07-28T08:08:02.055Z,54.81
2022-07-28T08:09:02.070Z,57.63
2022-07-28T08:10:02.032Z,57.56
2022-07-28T08:11:02.023Z,58.56
2022-07-28T08:12:02.014Z,57.03
2022-07-28T08:13:02.003Z,57.43
2022-07-28T08:14:01.996Z,57.10
2022-07-28T08:15:02.039Z,61.10
2022-07-28T08:16:02.013Z,55.06
2022-07-28T08:17:01.970Z,56.67
2022-07-28T08:18:01.947Z,54.83
2022-07-28T08:19:01.946Z,55.13
2022-07-28T08:20:01.940Z,54.40
2022-07-28T08:21:01.917Z,53.80
2022-07-28T08:22:01.904Z,53.50
2022-07-28T08:23:01.902Z,53.09
2022-07-28T08:24:01.883Z,53.40
2022-07-28T08:25:01.894Z,54.71
2022-07-28T08:26:01.870Z,54.71
2022-07-28T08:27:01.864Z,55.58
2022-07-28T08:28:01.832Z,54.78
2022-07-28T08:29:01.834Z,53.25
2022-07-28T08:30:01.830Z,51.84
2022-07-28T08:31:01.924Z,53.55
2022-07-28T08:32:01.810Z,53.34
2022-07-28T08:33:01.786Z,54.05
2022-07-28T08:34:01.778Z,52.26
2022-07-28T08:35:30.369Z,52.77
2022-07-28T08:36:01.764Z,52.67
2022-07-28T08:37:01.746Z,53.55
2022-07-28T08:38:01.733Z,52.14
2022-07-28T08:39:01.723Z,52.74
2022-07-28T08:40:01.735Z,53.25
2022-07-28T08:41:01.708Z,53.42
2022-07-28T08:42:01.695Z,53.50
2022-07-28T08:43:01.681Z,52.59
2022-07-28T08:44:01.672Z,51.49
2022-07-28T08:45:01.673Z,51.87
2022-07-28T08:46:01.774Z,50.96
2022-07-28T08:47:01.682Z,51.67
2022-07-28T08:48:09.807Z,51.26
2022-07-28T08:49:01.704Z,51.39
2022-07-28T08:50:01.635Z,51.89
2022-07-28T08:51:01.600Z,51.97
2022-07-28T08:52:01.585Z,50.79
2022-07-28T08:53:01.574Z,52.09
2022-07-28T08:54:01.573Z,50.48
2022-07-28T08:55:01.586Z,53.07
2022-07-28T08:56:01.552Z,50.24
2022-07-28T08:57:01.530Z,50.94
2022-07-28T08:58:01.527Z,51.04
2022-07-28T08:59:01.505Z,52.64
2022-07-28T09:00:01.522Z,49.93
2022-07-28T09:01:01.499Z,48.93
2022-07-28T09:02:01.541Z,50.21
2022-07-28T09:03:01.552Z,51.32
2022-07-28T09:04:01.466Z,48.19
2022-07-28T09:05:01.462Z,50.19
2022-07-28T09:06:01.436Z,50.07
2022-07-28T09:07:01.421Z,48.89
2022-07-28T09:08:01.416Z,49.69
2022-07-28T09:09:01.397Z,48.28
2022-07-28T09:10:02.695Z,49.69
2022-07-28T09:11:01.379Z,47.78
2022-07-28T09:12:01.377Z,49.69
2022-07-28T09:13:01.355Z,49.08
2022-07-28T09:14:01.350Z,49.07
2022-07-28T09:15:01.345Z,49.76
2022-07-28T09:16:01.395Z,49.52
2022-07-28T09:17:01.311Z,47.42
2022-07-28T09:18:01.301Z,47.22
2022-07-28T09:19:01.300Z,47.47
2022-07-28T09:20:01.298Z,46.43
2022-07-28T09:21:01.265Z,44.61
2022-07-28T09:22:01.256Z,43.27
2022-07-28T09:23:01.247Z,44.01
2022-07-28T09:24:01.239Z,43.71
2022-07-28T09:25:01.223Z,43.51
2022-07-28T09:26:01.230Z,44.65
2022-07-28T09:27:01.204Z,45.35
2022-07-28T09:28:01.197Z,44.35
2022-07-28T09:29:01.180Z,44.13
2022-07-28T09:30:01.187Z,45.35
2022-07-28T09:31:01.189Z,43.23
2022-07-28T09:32:01.309Z,41.36
2022-07-28T09:33:01.141Z,40.05
2022-07-28T09:34:01.167Z,39.09
2022-07-28T09:35:01.119Z,38.58
2022-07-28T09:36:02.244Z,38.32
2022-07-28T09:37:01.096Z,38.03
2022-07-28T09:38:01.097Z,36.72
2022-07-28T09:39:01.072Z,35.14
2022-07-28T09:40:03.827Z,36.76
2022-07-28T09:41:01.066Z,35.69
2022-07-28T09:42:01.052Z,35.93
2022-07-28T09:43:01.033Z,36.59
2022-07-28T09:44:01.030Z,34.99
2022-07-28T09:45:21.704Z,33.70
2022-07-28T09:46:01.066Z,35.19
2022-07-28T09:47:01.208Z,35.38
2022-07-28T09:48:01.168Z,35.61
2022-07-28T09:49:01.429Z,34.99
2022-07-28T09:50:01.026Z,36.95
2022-07-28T09:51:00.964Z,34.17
2022-07-28T09:52:00.943Z,33.16
2022-07-28T09:53:00.924Z,33.84
2022-07-28T09:54:00.925Z,33.75
2022-07-28T09:55:00.908Z,32.87
2022-07-28T09:56:00.918Z,32.77
2022-07-28T09:57:00.888Z,32.67
2022-07-28T09:58:00.879Z,35.75
2022-07-28T09:59:00.871Z,34.83
2022-07-28T10:00:00.854Z,34.91
2022-07-28T10:01:00.858Z,35.86
2022-07-28T10:02:01.940Z,36.76
2022-07-28T10:03:00.897Z,35.75
2022-07-28T10:04:02.701Z,35.52
2022-07-28T10:05:00.797Z,36.90
2022-07-28T10:06:00.804Z,37.34
2022-07-28T10:07:00.827Z,33.97
2022-07-28T10:08:00.769Z,34.86
2022-07-28T10:09:00.746Z,34.22
2022-07-28T10:10:00.749Z,31.92
2022-07-28T10:11:00.754Z,33.31
2022-07-28T10:12:00.724Z,33.22
2022-07-28T10:13:00.707Z,31.63
2022-07-28T10:14:00.709Z,32.64
2022-07-28T10:15:00.693Z,32.72
2022-07-28T10:16:00.722Z,32.49
2022-07-28T10:17:05.872Z,31.38
2022-07-28T10:18:00.667Z,32.36
2022-07-28T10:19:00.645Z,30.62
2022-07-28T10:20:00.637Z,31.67
2022-07-28T10:21:00.651Z,32.46
2022-07-28T10:22:00.616Z,31.06
2022-07-28T10:23:00.605Z,31.24
2022-07-28T10:24:00.603Z,32.03
2022-07-28T10:25:00.586Z,32.32
2022-07-28T10:26:00.586Z,32.13
2022-07-28T10:27:00.565Z,33.51
2022-07-28T10:28:00.558Z,34.12
2022-07-28T10:29:00.543Z,35.93
2022-07-28T10:30:00.557Z,34.89
2022-07-28T10:31:00.591Z,34.46
2022-07-28T10:32:00.520Z,32.14
2022-07-28T10:33:00.499Z,32.84
2022-07-28T10:34:00.497Z,31.63
2022-07-28T10:35:00.502Z,33.29
2022-07-28T10:36:00.491Z,34.41
2022-07-28T10:37:00.461Z,30.94
2022-07-28T10:38:00.458Z,32.73
2022-07-28T10:39:00.444Z,30.75
2022-07-28T10:40:00.438Z,32.14
2022-07-28T10:41:00.440Z,33.20
2022-07-28T10:42:00.423Z,32.13
2022-07-28T10:43:00.403Z,31.67
2022-07-28T10:44:00.400Z,33.89
2022-07-28T10:45:00.402Z,32.83
2022-07-28T10:46:06.014Z,33.28
2022-07-28T10:47:00.433Z,32.13
2022-07-28T10:48:00.356Z,34.67
2022-07-28T10:49:00.457Z,30.57
2022-07-28T10:50:00.342Z,32.79
2022-07-28T10:51:00.337Z,31.34
2022-07-28T10:52:04.910Z,32.77
2022-07-28T10:53:00.306Z,29.86
2022-07-28T10:54:00.293Z,31.11
2022-07-28T10:55:00.275Z,30.59
2022-07-28T10:56:00.288Z,30.59
2022-07-28T10:57:00.254Z,29.43
2022-07-28T10:58:01.690Z,30.60
2022-07-28T10:59:04.533Z,30.88
2022-07-28T11:00:05.301Z,29.89
2022-07-28T11:01:05.901Z,30.85
2022-07-28T11:02:00.384Z,29.16
2022-07-28T11:03:00.467Z,29.41
2022-07-28T11:04:00.324Z,28.36
2022-07-28T11:05:00.162Z,29.83
2022-07-28T11:06:00.170Z,28.64
2022-07-28T11:07:00.145Z,28.77
2022-07-28T11:08:00.136Z,28.95
2022-07-28T11:09:00.123Z,30.02
2022-07-28T11:10:00.156Z,32.10
2022-07-28T11:11:09.083Z,29.83
2022-07-28T11:12:00.095Z,31.41
2022-07-28T11:13:00.081Z,30.83
2022-07-28T11:14:00.070Z,30.00
2022-07-28T11:15:00.062Z,28.13
2022-07-28T11:16:00.649Z,30.27
2022-07-28T11:17:00.115Z,29.90
2022-07-28T11:18:00.029Z,31.28
2022-07-28T11:19:00.016Z,30.07
2022-07-28T11:20:16.428Z,28.86
2022-07-28T11:21:00.690Z,29.48
2022-07-28T11:22:00.100Z,30.46
2022-07-28T11:22:59.960Z,28.86
2022-07-28T11:23:59.957Z,27.85
2022-07-28T11:24:59.949Z,26.53
2022-07-28T11:25:59.939Z,29.82
2022-07-28T11:27:03.940Z,30.51
2022-07-28T11:27:59.919Z,31.00
2022-07-28T11:28:59.906Z,30.59
2022-07-28T11:29:59.910Z,30.11
2022-07-28T11:30:59.977Z,31.23
2022-07-28T11:31:59.896Z,31.44
2022-07-28T11:32:59.863Z,31.03
2022-07-28T11:33:59.853Z,30.19
2022-07-28T11:34:59.839Z,31.51
2022-07-28T11:35:59.840Z,33.31
2022-07-28T11:36:59.831Z,33.20
2022-07-28T11:37:59.810Z,33.65
2022-07-28T11:38:59.801Z,33.13
2022-07-28T11:39:59.787Z,32.98
2022-07-28T11:40:59.768Z,31.65
2022-07-28T11:41:59.778Z,31.93
2022-07-28T11:42:59.751Z,32.80
2022-07-28T11:43:59.744Z,30.24
2022-07-28T11:44:59.729Z,31.00
2022-07-28T11:45:59.753Z,30.82
2022-07-28T11:46:59.727Z,29.03
2022-07-28T11:47:59.705Z,29.52
2022-07-28T11:48:59.783Z,29.80
2022-07-28T11:49:59.675Z,28.52
2022-07-28T11:50:59.661Z,29.82
2022-07-28T11:51:59.668Z,29.63
2022-07-28T11:52:59.642Z,30.13
2022-07-28T11:53:59.637Z,29.25
2022-07-28T11:54:59.628Z,29.86
2022-07-28T11:56:02.861Z,29.86
2022-07-28T11:56:59.608Z,32.03
2022-07-28T11:57:59.631Z,29.14
2022-07-28T11:58:59.571Z,30.69
2022-07-28T11:59:59.565Z,30.46
2022-07-28T12:00:59.552Z,31.73
2022-07-28T12:01:59.657Z,30.14
2022-07-28T12:02:59.532Z,27.85
2022-07-28T12:03:59.703Z,28.23
2022-07-28T12:04:59.570Z,28.88
2022-07-28T12:05:59.498Z,30.98
2022-07-28T12:06:59.499Z,28.97
2022-07-28T12:07:59.480Z,29.85
2022-07-28T12:08:59.468Z,27.29
2022-07-28T12:09:59.455Z,27.72
2022-07-28T12:10:59.468Z,29.30
2022-07-28T12:11:59.445Z,28.99
2022-07-28T12:12:59.415Z,28.39
2022-07-28T12:13:59.413Z,28.29
2022-07-28T12:15:03.465Z,28.99
2022-07-28T12:15:59.394Z,28.13
2022-07-28T12:16:59.421Z,29.92
2022-07-28T12:17:59.366Z,31.16
2022-07-28T12:18:59.351Z,28.89
2022-07-28T12:19:59.345Z,27.94
2022-07-28T12:21:04.654Z,31.14
2022-07-28T12:21:59.347Z,32.10
2022-07-28T12:22:59.313Z,29.31
2022-07-28T12:23:59.310Z,29.86
2022-07-28T12:24:59.284Z,29.34
2022-07-28T12:25:59.293Z,26.97
2022-07-28T12:26:59.276Z,27.47
2022-07-28T12:27:59.260Z,26.50
2022-07-28T12:28:59.245Z,26.80
2022-07-28T12:29:59.237Z,27.69
2022-07-28T12:30:59.229Z,28.23
2022-07-28T12:31:59.562Z,29.63
2022-07-28T12:32:59.208Z,30.73
2022-07-28T12:33:59.391Z,29.85
2022-07-28T12:34:59.182Z,30.89
2022-07-28T12:35:59.173Z,31.70
2022-07-28T12:36:59.180Z,33.46
2022-07-28T12:37:59.151Z,31.52
2022-07-28T12:38:59.138Z,30.13
2022-07-28T12:39:59.133Z,30.93
2022-07-28T12:40:59.119Z,29.61
2022-07-28T12:41:59.137Z,29.20
2022-07-28T12:42:59.093Z,29.00
2022-07-28T12:43:59.093Z,29.09
2022-07-28T12:44:59.073Z,29.68
2022-07-28T12:45:59.134Z,28.63
2022-07-28T12:46:59.069Z,30.31
2022-07-28T12:47:59.052Z,29.44
2022-07-28T12:48:59.129Z,31.54
2022-07-28T12:50:02.403Z,30.78
2022-07-28T12:50:59.032Z,32.59
2022-07-28T12:51:59.005Z,31.40
2022-07-28T12:52:59.011Z,32.22
2022-07-28T12:53:58.982Z,33.37
2022-07-28T12:54:58.974Z,31.91
2022-07-28T12:55:58.959Z,32.52
2022-07-28T12:56:58.963Z,32.64
2022-07-28T12:57:58.954Z,34.10
2022-07-28T12:58:58.934Z,33.73
2022-07-28T12:59:58.914Z,33.77
2022-07-28T13:00:58.925Z,33.95
2022-07-28T13:01:58.962Z,35.24
2022-07-28T13:02:58.905Z,35.91
2022-07-28T13:03:58.871Z,33.57
2022-07-28T13:04:58.861Z,35.22
2022-07-28T13:05:58.847Z,33.21
2022-07-28T13:06:58.837Z,32.29
2022-07-28T13:07:58.836Z,32.10
2022-07-28T13:08:58.818Z,31.90
2022-07-28T13:10:00.696Z,32.49
2022-07-28T13:10:59.386Z,32.07
2022-07-28T13:11:58.778Z,33.06
2022-07-28T13:12:58.786Z,32.37
2022-07-28T13:13:58.752Z,33.15
2022-07-28T13:14:58.751Z,31.88
2022-07-28T13:15:58.816Z,31.88
2022-07-28T13:16:58.847Z,33.39
2022-07-28T13:17:58.747Z,33.87
2022-07-28T13:18:58.707Z,32.47
2022-07-28T13:19:58.690Z,31.76
2022-07-28T13:20:58.692Z,32.35
2022-07-28T13:22:01.872Z,32.90
2022-07-28T13:22:58.683Z,33.09
2022-07-28T13:23:58.649Z,32.49
2022-07-28T13:24:58.640Z,32.73
2022-07-28T13:25:58.630Z,34.22
2022-07-28T13:26:58.622Z,33.42
2022-07-28T13:27:58.675Z,32.65
2022-07-28T13:28:58.595Z,34.63
2022-07-28T13:29:58.580Z,34.22
2022-07-28T13:30:58.585Z,34.31
2022-07-28T13:31:58.739Z,33.84
2022-07-28T13:32:58.705Z,34.15
2022-07-28T13:33:58.551Z,35.34
2022-07-28T13:34:58.529Z,34.59
2022-07-28T13:35:58.552Z,35.49
2022-07-28T13:36:58.502Z,36.46
2022-07-28T13:37:58.540Z,35.95
2022-07-28T13:38:58.519Z,36.03
2022-07-28T13:39:58.469Z,35.52
2022-07-28T13:40:58.460Z,35.75
2022-07-28T13:41:59.380Z,35.19
2022-07-28T13:42:58.440Z,36.79
2022-07-28T13:43:58.440Z,37.88
2022-07-28T13:44:58.411Z,35.41
2022-07-28T13:46:00.141Z,35.32
2022-07-28T13:46:59.048Z,35.50
2022-07-28T13:47:58.374Z,37.87
2022-07-28T13:49:00.073Z,35.29
2022-07-28T13:49:58.352Z,35.37
2022-07-28T13:50:58.353Z,35.39
2022-07-28T13:51:58.329Z,35.80
2022-07-28T13:52:58.321Z,36.68
2022-07-28T13:53:58.326Z,35.77
2022-07-28T13:54:58.301Z,39.71
2022-07-28T13:55:58.285Z,38.23
2022-07-28T13:56:58.279Z,35.58
2022-07-28T13:57:58.268Z,36.16
2022-07-28T13:58:58.279Z,35.47
2022-07-28T13:59:58.244Z,35.27
2022-07-28T14:00:58.254Z,35.80
2022-07-28T14:01:58.228Z,35.71
2022-07-28T14:02:58.317Z,36.51
2022-07-28T14:03:58.352Z,36.02
2022-07-28T14:04:58.193Z,38.30
2022-07-28T14:05:58.174Z,40.28
2022-07-28T14:06:58.177Z,35.71
2022-07-28T14:07:58.162Z,35.50
2022-07-28T14:08:58.167Z,35.71
2022-07-28T14:09:58.136Z,38.68
2022-07-28T14:10:58.133Z,35.69
2022-07-28T14:11:58.122Z,37.26
2022-07-28T14:12:58.109Z,36.76
2022-07-28T14:13:58.106Z,37.43
2022-07-28T14:14:58.090Z,37.55
2022-07-28T14:16:02.157Z,36.66
2022-07-28T14:16:58.234Z,36.46
2022-07-28T14:17:58.138Z,36.51
2022-07-28T14:18:58.055Z,36.61
2022-07-28T14:19:58.032Z,36.69
2022-07-28T14:20:58.022Z,39.07
2022-07-28T14:21:57.999Z,36.88
2022-07-28T14:22:58.009Z,36.56
2022-07-28T14:23:57.991Z,35.86
2022-07-28T14:24:57.972Z,35.57
2022-07-28T14:26:18.244Z,35.09
2022-07-28T14:26:57.956Z,35.90
2022-07-28T14:27:57.940Z,34.91
2022-07-28T14:28:57.939Z,35.62
2022-07-28T14:29:57.925Z,36.61
2022-07-28T14:30:57.982Z,36.91
2022-07-28T14:31:57.974Z,37.79
2022-07-28T14:32:57.891Z,37.37
2022-07-28T14:33:57.883Z,35.67
2022-07-28T14:34:57.861Z,36.58
2022-07-28T14:35:57.843Z,36.08
2022-07-28T14:36:57.838Z,36.61
2022-07-28T14:38:42.449Z,36.40
2022-07-28T14:38:57.857Z,37.49
2022-07-28T14:39:57.801Z,38.26
2022-07-28T14:40:57.799Z,36.56
2022-07-28T14:41:57.781Z,35.19
2022-07-28T14:42:57.769Z,35.78
2022-07-28T14:43:57.779Z,36.38
2022-07-28T14:44:57.751Z,35.57
2022-07-28T14:46:14.671Z,35.69
2022-07-28T14:46:57.809Z,37.37
2022-07-28T14:47:57.703Z,36.28
2022-07-28T14:48:57.770Z,36.28
2022-07-28T14:49:58.692Z,36.30
2022-07-28T14:50:57.682Z,35.44
2022-07-28T14:51:57.671Z,37.13
2022-07-28T14:52:57.658Z,37.15
2022-07-28T14:53:57.658Z,36.96
2022-07-28T14:54:57.644Z,39.35
2022-07-28T14:55:57.621Z,37.56
2022-07-28T14:56:57.749Z,37.15
2022-07-28T14:57:57.627Z,36.94
2022-07-28T14:58:57.620Z,37.24
2022-07-28T14:59:57.577Z,36.85
2022-07-28T15:00:57.573Z,38.22
2022-07-28T15:01:57.692Z,38.30
2022-07-28T15:02:57.607Z,37.19
2022-07-28T15:03:57.553Z,36.38
2022-07-28T15:04:57.526Z,35.69
2022-07-28T15:05:57.514Z,37.35
2022-07-28T15:06:57.503Z,36.62
2022-07-28T15:07:57.493Z,35.46
2022-07-28T15:08:57.484Z,35.44
2022-07-28T15:09:57.479Z,36.52
2022-07-28T15:10:57.461Z,34.55
2022-07-28T15:11:57.444Z,34.05
2022-07-28T15:12:57.437Z,33.75
2022-07-28T15:13:57.419Z,34.36
2022-07-28T15:14:57.429Z,35.85
2022-07-28T15:15:57.467Z,35.14
2022-07-28T15:16:57.394Z,34.84
2022-07-28T15:17:57.394Z,36.03
2022-07-28T15:18:57.377Z,35.63
2022-07-28T15:19:57.370Z,34.56
2022-07-28T15:20:57.343Z,35.17
2022-07-28T15:21:57.333Z,36.68
2022-07-28T15:22:57.326Z,35.71
2022-07-28T15:23:57.313Z,36.51
2022-07-28T15:24:57.319Z,37.09
2022-07-28T15:25:57.290Z,37.09
2022-07-28T15:26:57.283Z,35.80
2022-07-28T15:27:57.276Z,36.90
2022-07-28T15:28:57.266Z,36.00
2022-07-28T15:29:58.287Z,36.58
2022-07-28T15:30:57.342Z,35.58
2022-07-28T15:31:57.342Z,36.28
2022-07-28T15:32:57.506Z,36.08
2022-07-28T15:33:58.118Z,36.68
2022-07-28T15:34:57.225Z,36.16
2022-07-28T15:35:59.201Z,36.00
2022-07-28T15:36:57.183Z,35.88
2022-07-28T15:37:57.167Z,35.41
2022-07-28T15:38:57.165Z,36.99
2022-07-28T15:39:57.180Z,37.19
2022-07-28T15:40:57.144Z,35.71
2022-07-28T15:41:57.125Z,36.20
2022-07-28T15:42:57.121Z,36.02
2022-07-28T15:43:57.115Z,36.83
2022-07-28T15:45:01.010Z,37.43
2022-07-28T15:45:57.096Z,37.41
2022-07-28T15:46:57.165Z,38.28
2022-07-28T15:47:57.058Z,36.30
2022-07-28T15:48:57.127Z,35.90
2022-07-28T15:49:57.044Z,36.71
2022-07-28T15:50:57.054Z,36.81
2022-07-28T15:51:57.912Z,36.73
2022-07-28T15:52:57.014Z,37.43
2022-07-28T15:53:56.995Z,37.62
2022-07-28T15:54:56.996Z,37.74
2022-07-28T15:55:56.994Z,37.94
2022-07-28T15:56:56.970Z,37.46
2022-07-28T15:57:56.955Z,38.45
2022-07-28T15:58:56.959Z,38.56
2022-07-28T15:59:56.936Z,38.57
2022-07-28T16:00:56.945Z,39.17
2022-07-28T16:01:56.975Z,37.88
2022-07-28T16:02:56.952Z,38.57
2022-07-28T16:03:56.904Z,39.07
2022-07-28T16:04:56.895Z,39.07
2022-07-28T16:05:56.900Z,38.95
2022-07-28T16:06:56.871Z,38.75
2022-07-28T16:07:56.859Z,39.15
2022-07-28T16:08:56.851Z,38.57
2022-07-28T16:09:56.839Z,39.97
2022-07-28T16:10:56.844Z,39.67
2022-07-28T16:11:56.824Z,39.17
2022-07-28T16:12:56.807Z,39.84
2022-07-28T16:13:56.798Z,38.75
2022-07-28T16:14:56.816Z,38.65
2022-07-28T16:15:56.933Z,38.37
2022-07-28T16:16:56.784Z,39.76
2022-07-28T16:17:56.762Z,39.37
2022-07-28T16:18:59.191Z,39.47
2022-07-28T16:19:56.753Z,39.57
2022-07-28T16:20:56.737Z,38.77
2022-07-28T16:21:56.720Z,39.29
2022-07-28T16:22:56.720Z,39.78
2022-07-28T16:23:56.698Z,39.09
2022-07-28T16:24:56.703Z,39.39
2022-07-28T16:25:56.681Z,39.48
2022-07-28T16:26:56.674Z,39.39
2022-07-28T16:27:56.673Z,39.09
2022-07-28T16:28:56.651Z,39.39
2022-07-28T16:29:56.722Z,39.59
2022-07-28T16:30:56.679Z,40.18
2022-07-28T16:31:56.615Z,39.18
2022-07-28T16:32:56.617Z,39.29
2022-07-28T16:33:56.593Z,39.18
2022-07-28T16:34:56.609Z,38.71
2022-07-28T16:35:56.581Z,39.61
2022-07-28T16:36:56.572Z,43.98
2022-07-28T16:37:56.585Z,41.50
2022-07-28T16:38:56.548Z,40.28
2022-07-28T16:39:56.535Z,40.86
2022-07-28T16:40:56.530Z,39.86
2022-07-28T16:41:56.512Z,39.86
2022-07-28T16:42:56.493Z,40.76
2022-07-28T16:43:56.483Z,39.95
2022-07-28T16:44:56.497Z,40.54
2022-07-28T16:45:56.563Z,40.26
2022-07-28T16:46:56.587Z,39.17
2022-07-28T16:47:56.464Z,39.98
2022-07-28T16:48:56.501Z,39.69
2022-07-28T16:49:56.442Z,41.28
2022-07-28T16:50:56.425Z,43.76
2022-07-28T16:51:56.397Z,42.67
2022-07-28T16:52:56.410Z,40.60
2022-07-28T16:53:56.386Z,41.20
2022-07-28T16:54:56.402Z,41.30
2022-07-28T16:55:56.367Z,41.20
2022-07-28T16:56:56.358Z,41.30
2022-07-28T16:57:56.343Z,41.09
2022-07-28T16:58:56.342Z,40.10
2022-07-28T16:59:56.339Z,40.90
2022-07-28T17:00:56.320Z,40.72
2022-07-28T17:01:56.331Z,41.31
2022-07-28T17:02:56.292Z,41.12
2022-07-28T17:03:56.288Z,40.72
2022-07-28T17:04:56.366Z,40.82
2022-07-28T17:05:56.260Z,40.12
2022-07-28T17:06:56.248Z,40.94
2022-07-28T17:07:56.243Z,41.14
2022-07-28T17:08:56.225Z,41.16
2022-07-28T17:09:56.233Z,41.75
2022-07-28T17:10:56.206Z,41.06
2022-07-28T17:11:56.202Z,41.85
2022-07-28T17:12:56.190Z,42.05
2022-07-28T17:13:56.175Z,40.46
2022-07-28T17:14:56.174Z,40.95
2022-07-28T17:15:56.256Z,41.93
2022-07-28T17:16:56.142Z,41.53
2022-07-28T17:17:56.143Z,42.73
2022-07-28T17:18:56.118Z,43.03
2022-07-28T17:19:56.147Z,42.23
2022-07-28T17:20:56.100Z,42.43
2022-07-28T17:21:56.091Z,40.84
2022-07-28T17:22:56.077Z,40.76
2022-07-28T17:23:56.069Z,42.05
2022-07-28T17:24:56.072Z,41.25
2022-07-28T17:26:35.516Z,41.16
2022-07-28T17:27:56.029Z,43.55
2022-07-28T17:28:56.011Z,41.96
2022-07-28T17:29:56.024Z,41.66
2022-07-28T17:30:56.048Z,42.25
2022-07-28T17:31:55.994Z,41.55
2022-07-28T17:32:55.990Z,42.25
2022-07-28T17:33:55.987Z,41.36
2022-07-28T17:34:55.961Z,41.96
2022-07-28T17:35:55.935Z,41.88
2022-07-28T17:36:55.926Z,41.67
2022-07-28T17:37:55.925Z,41.38
2022-07-28T17:38:55.913Z,41.88